Time;durP1;ratioP1;P1;durP2;ratioP2;P2;SDS_P1;SDS_P2;PMS_P1;PMS_P2;Temp;Humidity;BMP_temperature;BMP_pressure;BME280_temperature;BME280_humidity;BME280_pressure;Samples;Min_cycle;Max_cycle;Signal;HPM_P1;HPM_P2
2023/05/28 10:09:27;;;;;;;9.35;4.35;;;13.00;70.20;;;;;;4940764;28;20901;-68
2023/05/28 10:12:11;;;;;;;5.97;3.65;;;12.90;70.00;;;;;;4951149;28;20359;-66
2023/05/28 10:14:39;;;;;;;7.10;4.30;;;12.90;69.60;;;;;;4934783;29;20106;-67
2023/05/28 10:17:10;;;;;;;7.35;4.68;;;12.90;69.00;;;;;;4917938;28;20070;-71
2023/05/28 10:19:38;;;;;;;6.18;3.72;;;12.90;68.60;;;;;;4934728;29;20066;-71
2023/05/28 10:22:05;;;;;;;7.13;4.40;;;12.90;68.70;;;;;;4937690;28;20062;-65
2023/05/28 10:24:33;;;;;;;9.70;5.60;;;12.90;68.80;;;;;;4953443;28;20050;-65
2023/05/28 10:27:01;;;;;;;7.90;4.75;;;12.90;69.10;;;;;;4937587;29;20067;-66
2023/05/28 10:29:29;;;;;;;6.10;4.50;;;12.90;69.40;;;;;;4936005;28;20043;-65
2023/05/28 10:32:02;;;;;;;8.02;4.60;;;12.80;69.50;;;;;;4937726;29;20032;-65
2023/05/28 10:34:31;;;;;;;6.88;4.60;;;12.80;69.70;;;;;;4954824;28;20550;-65
2023/05/28 10:37:04;;;;;;;7.40;5.18;;;12.80;69.90;;;;;;4952821;28;20066;-65
2023/05/28 10:39:47;;;;;;;8.27;4.53;;;12.80;70.00;;;;;;4952441;28;20070;-65
2023/05/28 10:42:20;;;;;;;7.63;4.60;;;12.70;69.90;;;;;;4954974;29;20039;-66
2023/05/28 10:45:00;;;;;;;7.13;4.05;;;12.70;69.80;;;;;;4954878;28;20446;-65
2023/05/28 10:47:41;;;;;;;6.67;3.90;;;12.70;69.30;;;;;;4938826;28;20498;-66
2023/05/28 10:50:15;;;;;;;5.63;3.45;;;12.70;68.90;;;;;;4953591;28;20297;-66
2023/05/28 10:52:44;;;;;;;5.43;3.42;;;12.70;68.60;;;;;;4954302;28;20426;-66
2023/05/28 10:55:12;;;;;;;5.10;3.40;;;12.60;68.60;;;;;;4949303;28;20065;-66
2023/05/28 10:57:46;;;;;;;7.22;3.45;;;12.60;68.60;;;;;;4954854;28;20051;-66
2023/05/28 11:00:24;;;;;;;4.90;3.15;;;12.60;68.40;;;;;;4952326;29;20038;-66
2023/05/28 11:02:52;;;;;;;5.90;3.15;;;12.50;68.40;;;;;;4952363;28;20101;-66
2023/05/28 11:05:29;;;;;;;6.15;3.53;;;12.50;68.90;;;;;;4953824;28;20043;-67
2023/05/28 11:07:57;;;;;;;5.97;4.20;;;12.40;69.30;;;;;;4921202;29;20106;-66
2023/05/28 11:10:24;;;;;;;7.47;3.83;;;12.40;69.70;;;;;;4952358;28;20051;-66
2023/05/28 11:12:52;;;;;;;5.28;4.05;;;12.40;69.90;;;;;;4935714;29;20036;-67
2023/05/28 11:15:22;;;;;;;9.10;4.20;;;12.40;70.10;;;;;;4953888;28;20039;-67
2023/05/28 11:17:49;;;;;;;5.80;4.30;;;12.40;70.30;;;;;;4935385;29;20075;-66
2023/05/28 11:20:21;;;;;;;8.07;4.47;;;12.40;70.50;;;;;;4953190;28;20282;-66
2023/05/28 11:22:49;;;;;;;11.25;4.15;;;12.40;70.40;;;;;;4952584;28;20067;-66
2023/05/28 11:25:16;;;;;;;7.55;3.55;;;12.40;70.20;;;;;;4953491;29;20479;-67
2023/05/28 11:27:45;;;;;;;6.65;3.88;;;12.40;70.30;;;;;;4952024;28;20047;-67
2023/05/28 11:30:14;;;;;;;6.35;4.03;;;12.40;70.70;;;;;;4953088;28;20039;-66
2023/05/28 11:32:42;;;;;;;5.93;3.80;;;12.40;71.10;;;;;;4949944;28;20035;-67
2023/05/28 11:35:13;;;;;;;8.80;4.15;;;12.40;71.00;;;;;;4953699;29;20035;-67
2023/05/28 11:37:41;;;;;;;5.00;3.38;;;12.40;70.90;;;;;;4935523;28;20052;-67
2023/05/28 11:40:10;;;;;;;5.85;3.85;;;12.40;70.90;;;;;;4937034;29;20055;-67
2023/05/28 11:42:39;;;;;;;5.38;3.70;;;12.40;71.00;;;;;;4957778;28;20040;-67
2023/05/28 11:45:07;;;;;;;6.00;3.85;;;12.40;71.10;;;;;;4949578;28;20039;-67
2023/05/28 11:47:35;;;;;;;7.65;4.50;;;12.30;71.60;;;;;;4952795;28;20043;-67
2023/05/28 11:50:15;;;;;;;12.82;4.47;;;12.20;71.80;;;;;;4952142;29;20031;-67
2023/05/28 11:52:43;;;;;;;8.75;4.30;;;12.20;72.00;;;;;;4947397;28;20490;-67
2023/05/28 11:55:11;;;;;;;7.53;4.68;;;12.30;72.00;;;;;;4952954;28;20094;-66
2023/05/28 11:57:39;;;;;;;10.27;4.45;;;12.30;72.00;;;;;;4920152;28;20046;-67
2023/05/28 12:00:11;;;;;;;9.05;4.57;;;12.20;72.00;;;;;;4952518;28;20490;-67
2023/05/28 12:02:49;;;;;;;7.00;4.10;;;12.10;72.20;;;;;;4952371;28;20047;-67
2023/05/28 12:05:17;;;;;;;6.60;3.80;;;12.10;72.20;;;;;;4953491;29;20422;-66
2023/05/28 12:07:47;;;;;;;10.07;4.40;;;12.10;72.40;;;;;;4953400;28;20398;-67
2023/05/28 12:10:16;;;;;;;7.10;4.00;;;12.10;71.80;;;;;;4951369;28;20134;-67
2023/05/28 12:12:48;;;;;;;5.25;3.58;;;12.10;72.00;;;;;;4949241;28;20046;-67
2023/05/28 12:15:16;;;;;;;4.25;2.85;;;12.10;71.60;;;;;;4953595;29;20043;-67
2023/05/28 12:17:46;;;;;;;4.82;2.92;;;12.10;70.90;;;;;;4941395;28;20051;-67
2023/05/28 12:20:14;;;;;;;4.13;2.55;;;12.20;71.00;;;;;;4951255;28;20038;-67
2023/05/28 12:22:41;;;;;;;4.20;2.60;;;12.20;70.60;;;;;;4952148;28;20039;-67
2023/05/28 12:25:09;;;;;;;3.65;2.42;;;12.20;70.00;;;;;;4953552;29;20784;-67
2023/05/28 12:27:37;;;;;;;3.22;2.30;;;12.20;69.70;;;;;;4953141;28;20039;-67
2023/05/28 12:30:05;;;;;;;3.65;2.65;;;12.20;69.60;;;;;;4935527;29;20516;-66
2023/05/28 12:32:36;;;;;;;3.63;2.42;;;12.20;69.60;;;;;;4935361;29;20528;-67
2023/05/28 12:35:03;;;;;;;3.67;2.40;;;12.20;69.50;;;;;;4953122;29;20112;-67
2023/05/28 12:37:31;;;;;;;6.28;2.80;;;12.20;69.60;;;;;;4952860;28;20051;-67
2023/05/28 12:39:58;;;;;;;4.18;2.60;;;12.20;69.20;;;;;;4950503;28;20080;-66
2023/05/28 12:42:26;;;;;;;4.30;2.40;;;12.20;69.20;;;;;;4952481;28;20042;-67
2023/05/28 12:44:53;;;;;;;4.47;2.28;;;12.20;69.40;;;;;;4939304;29;20063;-67
2023/05/28 12:47:21;;;;;;;3.33;2.13;;;12.20;69.40;;;;;;4955150;28;20035;-67
2023/05/28 12:49:48;;;;;;;3.50;2.10;;;12.20;69.40;;;;;;4952711;28;20035;-67
2023/05/28 12:52:15;;;;;;;4.28;2.00;;;12.20;69.90;;;;;;4955665;28;20074;-66
2023/05/28 12:54:43;;;;;;;2.97;1.90;;;12.20;69.70;;;;;;4956251;28;20466;-65
2023/05/28 12:57:10;;;;;;;3.75;2.13;;;12.20;69.60;;;;;;4954849;28;20043;-65
2023/05/28 12:59:37;;;;;;;2.60;1.98;;;12.20;69.30;;;;;;4956205;28;20118;-68
2023/05/28 13:02:05;;;;;;;2.72;2.08;;;12.20;69.20;;;;;;4955036;28;20118;-66
2023/05/28 13:04:32;;;;;;;2.97;1.90;;;12.20;69.20;;;;;;4953350;28;20043;-65
2023/05/28 13:07:00;;;;;;;3.25;2.08;;;12.10;68.80;;;;;;4955224;28;20042;-65
2023/05/28 13:09:27;;;;;;;3.22;2.25;;;12.10;69.00;;;;;;4954746;28;20074;-68
2023/05/28 13:11:56;;;;;;;2.90;1.95;;;12.10;69.00;;;;;;4955497;28;20102;-65
2023/05/28 13:14:23;;;;;;;3.42;2.10;;;12.10;69.00;;;;;;4956582;29;20123;-65
2023/05/28 13:16:50;;;;;;;2.65;1.70;;;12.00;69.10;;;;;;4955079;28;20494;-65
2023/05/28 13:19:18;;;;;;;3.35;2.15;;;12.10;69.20;;;;;;4967097;28;20351;-65
2023/05/28 13:21:45;;;;;;;2.80;1.90;;;12.00;69.20;;;;;;4960009;28;20032;-67
2023/05/28 13:24:13;;;;;;;2.92;2.08;;;12.00;69.20;;;;;;4948751;28;20082;-68
2023/05/28 13:26:40;;;;;;;2.97;1.95;;;12.00;69.40;;;;;;4942504;28;20043;-66
2023/05/28 13:29:07;;;;;;;2.60;1.58;;;12.00;69.60;;;;;;4954644;28;20493;-66
2023/05/28 13:31:35;;;;;;;3.88;1.70;;;12.00;69.50;;;;;;4957651;28;20129;-65
2023/05/28 13:34:03;;;;;;;2.63;1.60;;;12.00;69.30;;;;;;4940888;29;20027;-65
2023/05/28 13:36:30;;;;;;;2.13;1.42;;;12.00;69.20;;;;;;4950341;28;20505;-66
2023/05/28 13:38:58;;;;;;;4.28;1.52;;;12.00;69.30;;;;;;4954587;28;20387;-65
2023/05/28 13:41:25;;;;;;;2.67;1.50;;;12.00;69.30;;;;;;4954762;28;20043;-65
2023/05/28 13:43:54;;;;;;;2.30;1.52;;;12.00;69.30;;;;;;4943426;28;20397;-66
2023/05/28 13:46:24;;;;;;;2.47;1.50;;;12.00;69.20;;;;;;4955663;28;20458;-66
2023/05/28 13:48:52;;;;;;;2.17;1.45;;;11.90;69.40;;;;;;4935758;29;20027;-66
2023/05/28 13:51:19;;;;;;;2.40;1.60;;;12.00;69.40;;;;;;4946353;28;20311;-66
2023/05/28 13:53:48;;;;;;;2.90;1.70;;;11.90;69.60;;;;;;4949647;28;20497;-66
2023/05/28 13:56:15;;;;;;;2.13;1.70;;;11.90;69.50;;;;;;4937473;28;20031;-66
2023/05/28 13:58:43;;;;;;;1.92;1.42;;;11.90;69.30;;;;;;4954008;28;20054;-66
2023/05/28 14:01:10;;;;;;;1.20;1.10;;;11.90;69.00;;;;;;4955587;28;20038;-66
2023/05/28 14:03:38;;;;;;;1.65;1.38;;;12.00;68.70;;;;;;4948619;28;20134;-66
2023/05/28 14:06:05;;;;;;;1.55;1.40;;;12.00;68.70;;;;;;4945441;28;20089;-66
2023/05/28 14:08:33;;;;;;;1.70;1.30;;;12.00;68.40;;;;;;4955350;28;20050;-66
2023/05/28 14:11:00;;;;;;;2.17;1.20;;;12.00;68.10;;;;;;4966925;28;20057;-66
2023/05/28 14:13:31;;;;;;;3.03;1.30;;;12.00;68.10;;;;;;4957660;28;20047;-66
2023/05/28 14:16:01;;;;;;;1.65;1.20;;;12.00;68.30;;;;;;4975121;28;20026;-66
2023/05/28 14:18:28;;;;;;;1.92;1.30;;;12.00;68.50;;;;;;4956193;28;20134;-66
2023/05/28 14:20:56;;;;;;;2.95;1.40;;;12.00;68.50;;;;;;4954986;28;20168;-65
2023/05/28 14:23:24;;;;;;;3.10;1.20;;;12.00;68.50;;;;;;4955425;29;20058;-66
2023/05/28 14:25:51;;;;;;;1.92;1.30;;;12.00;68.50;;;;;;4955275;28;20515;-66
2023/05/28 14:28:19;;;;;;;1.20;1.02;;;12.00;68.20;;;;;;4955455;28;20040;-66
2023/05/28 14:30:47;;;;;;;2.08;1.10;;;12.10;68.30;;;;;;4955230;28;20446;-66
2023/05/28 14:33:15;;;;;;;2.00;1.40;;;12.10;68.30;;;;;;4955635;29;20028;-66
2023/05/28 14:35:42;;;;;;;2.08;1.50;;;12.10;68.40;;;;;;4955173;28;20058;-66
2023/05/28 14:38:09;;;;;;;1.42;1.15;;;12.10;68.30;;;;;;4953664;28;20450;-66
2023/05/28 14:40:37;;;;;;;1.35;1.17;;;12.20;68.50;;;;;;4968849;28;20099;-66
2023/05/28 14:43:04;;;;;;;1.52;1.10;;;12.20;68.60;;;;;;4934365;29;20126;-66
2023/05/28 14:45:32;;;;;;;1.80;1.30;;;12.20;68.60;;;;;;4954825;28;20126;-66
2023/05/28 14:48:01;;;;;;;4.15;1.10;;;12.20;68.50;;;;;;4954891;28;20039;-66
2023/05/28 14:50:28;;;;;;;1.45;1.23;;;12.20;68.50;;;;;;4954087;28;20063;-66
2023/05/28 14:52:55;;;;;;;1.58;1.15;;;12.20;68.60;;;;;;4971335;28;20049;-66
2023/05/28 14:55:23;;;;;;;1.10;1.00;;;12.20;68.40;;;;;;4935942;29;20039;-66
2023/05/28 14:57:50;;;;;;;1.42;1.10;;;12.20;68.30;;;;;;4935642;29;20086;-66
2023/05/28 22:48:14;;;;;;;3.42;0.93;;;12.00;76.60;;;;;;4949591;28;20057;-67
2023/05/28 22:50:41;;;;;;;2.42;1.00;;;12.10;76.50;;;;;;4954280;29;20055;-67
2023/05/28 22:53:09;;;;;;;4.43;1.20;;;12.10;76.20;;;;;;4954957;29;20042;-67
2023/05/28 22:55:36;;;;;;;1.85;0.90;;;12.20;76.10;;;;;;4955368;29;20390;-67
2023/05/28 22:58:04;;;;;;;2.85;1.13;;;12.20;76.00;;;;;;4955007;28;20050;-67
2023/05/28 23:00:31;;;;;;;1.70;1.10;;;12.20;76.10;;;;;;4954948;29;20038;-67
2023/05/28 23:02:59;;;;;;;0.88;0.82;;;12.30;75.80;;;;;;4955030;29;20393;-67
2023/05/28 23:05:27;;;;;;;2.58;1.02;;;12.40;75.80;;;;;;4955008;29;20027;-67
2023/05/28 23:07:55;;;;;;;4.15;1.20;;;12.40;75.60;;;;;;4954814;28;20040;-67
2023/05/28 23:10:22;;;;;;;3.42;1.38;;;12.50;75.60;;;;;;4954687;29;20035;-67
2023/05/28 23:12:50;;;;;;;3.25;1.30;;;12.50;75.50;;;;;;4954951;29;20130;-67
2023/05/28 23:15:17;;;;;;;2.03;1.00;;;12.60;75.50;;;;;;4938066;29;20319;-67
2023/05/28 23:17:45;;;;;;;3.67;1.35;;;12.70;75.40;;;;;;4954757;28;20123;-67
2023/05/28 23:20:13;;;;;;;7.80;1.40;;;12.70;75.20;;;;;;4954787;29;20082;-67
2023/05/28 23:22:41;;;;;;;4.55;1.38;;;12.70;75.10;;;;;;4937700;29;20438;-67
2023/05/28 23:25:09;;;;;;;7.60;1.67;;;12.70;75.10;;;;;;4954487;29;20098;-67
2023/05/28 23:27:36;;;;;;;7.45;1.88;;;12.80;75.10;;;;;;4937084;28;20454;-67
2023/05/28 23:30:04;;;;;;;4.93;1.85;;;12.80;75.00;;;;;;4954537;29;20065;-67
2023/05/28 23:32:33;;;;;;;3.88;1.30;;;12.90;74.60;;;;;;4954571;29;20390;-67
2023/05/28 23:35:01;;;;;;;4.72;1.30;;;12.90;74.10;;;;;;4954538;29;20035;-67
2023/05/28 23:37:28;;;;;;;1.77;0.93;;;13.00;73.90;;;;;;4954387;28;20043;-67
2023/05/28 23:39:56;;;;;;;3.38;1.10;;;13.10;73.80;;;;;;4954583;29;20046;-67
2023/05/28 23:42:23;;;;;;;4.70;1.20;;;13.10;73.60;;;;;;4954444;29;20034;-67
2023/05/28 23:44:52;;;;;;;2.08;1.10;;;13.20;73.50;;;;;;4954526;29;20027;-67
2023/05/28 23:47:19;;;;;;;6.70;1.40;;;13.20;73.40;;;;;;4955004;29;20039;-67
2023/05/28 23:49:46;;;;;;;4.68;1.02;;;13.20;73.20;;;;;;4954294;28;20031;-67
2023/05/28 23:52:14;;;;;;;3.60;1.25;;;13.20;73.10;;;;;;4954540;29;20042;-67
2023/05/28 23:54:42;;;;;;;5.22;1.55;;;13.30;73.00;;;;;;4954289;29;20039;-67
2023/05/28 23:57:09;;;;;;;4.18;1.40;;;13.40;73.00;;;;;;4954362;29;20035;-67
2023/05/28 23:59:37;;;;;;;11.85;2.00;;;13.40;73.10;;;;;;4953900;28;20039;-67
